createdAt,value
2023-04-30T00:01:14.008Z,101814.63
2023-04-30T00:03:40.980Z,101833.88
2023-04-30T00:06:08.106Z,101826.06
2023-04-30T00:08:37.913Z,101816.19
2023-04-30T00:11:05.092Z,101837.19
2023-04-30T00:13:32.075Z,101827.56
2023-04-30T00:15:59.082Z,101831.03
2023-04-30T00:18:26.030Z,101835.53
2023-04-30T00:20:53.519Z,101823.22
2023-04-30T00:23:20.587Z,101822.69
2023-04-30T00:25:47.496Z,101822.59
2023-04-30T00:28:14.488Z,101819.66
2023-04-30T00:30:41.539Z,101848.03
2023-04-30T00:33:08.631Z,101839.72
2023-04-30T00:35:35.657Z,101843.09
2023-04-30T00:38:02.655Z,101846.03
2023-04-30T00:40:29.692Z,101864.91
2023-04-30T00:42:56.798Z,101859.75
2023-04-30T00:45:23.704Z,101867.53
2023-04-30T00:47:50.898Z,101856.88
2023-04-30T00:50:18.049Z,101860.25
2023-04-30T00:52:45.487Z,101867.97
2023-04-30T00:55:13.421Z,101862.41
2023-04-30T00:57:43.285Z,101848.19
2023-04-30T01:00:11.442Z,101851.88
2023-04-30T01:02:38.844Z,101866.41
2023-04-30T01:05:07.259Z,101865.56
2023-04-30T01:07:36.569Z,101869.16
2023-04-30T01:10:03.778Z,101861.88
2023-04-30T01:13:04.228Z,101871.03
2023-04-30T01:15:47.941Z,101867.16
2023-04-30T01:18:44.306Z,101842.28
2023-04-30T01:21:13.989Z,101854.94
2023-04-30T01:23:55.957Z,101874.31
2023-04-30T01:26:54.297Z,101866.97
2023-04-30T01:29:23.986Z,101875.94
2023-04-30T01:31:51.146Z,101877.81
2023-04-30T01:34:18.204Z,101857.59
2023-04-30T01:37:12.850Z,101877.00
2023-04-30T01:40:09.987Z,101868.50
2023-04-30T01:42:49.216Z,101875.16
2023-04-30T01:45:43.008Z,101854.44
2023-04-30T01:48:43.663Z,101860.22
2023-04-30T01:51:34.011Z,101874.13
2023-04-30T01:54:24.568Z,101855.06
2023-04-30T01:57:07.266Z,101868.44
2023-04-30T01:59:36.494Z,101884.84
2023-04-30T02:02:04.282Z,101880.34
2023-04-30T02:04:31.271Z,101824.56
2023-04-30T02:06:58.914Z,101860.81
2023-04-30T02:09:26.080Z,101855.03
2023-04-30T02:11:52.940Z,101877.72
2023-04-30T02:14:20.591Z,101876.97
2023-04-30T02:16:47.625Z,101844.03
2023-04-30T02:19:14.523Z,101862.31
2023-04-30T02:21:41.443Z,101795.38
2023-04-30T02:24:08.723Z,101897.38
2023-04-30T02:26:35.616Z,101883.69
2023-04-30T02:29:02.696Z,101906.03
2023-04-30T02:31:29.795Z,101870.31
2023-04-30T02:33:56.786Z,101904.72
2023-04-30T02:36:23.707Z,101895.22
2023-04-30T02:38:50.620Z,101884.91
2023-04-30T02:41:17.580Z,101868.28
2023-04-30T02:43:44.503Z,101921.84
2023-04-30T02:46:11.565Z,101881.16
2023-04-30T02:48:38.599Z,101920.81
2023-04-30T02:51:05.857Z,101880.69
2023-04-30T02:53:32.818Z,101908.53
2023-04-30T02:55:59.792Z,101870.44
2023-04-30T02:58:26.721Z,101852.00
2023-04-30T03:00:53.830Z,101874.69
2023-04-30T03:03:21.656Z,101822.56
2023-04-30T03:05:48.661Z,101864.53
2023-04-30T03:08:16.633Z,101873.38
2023-04-30T03:10:44.304Z,101886.94
2023-04-30T03:13:11.279Z,101862.03
2023-04-30T03:15:38.318Z,101899.84
2023-04-30T03:18:05.639Z,101915.59
2023-04-30T03:20:32.645Z,101893.25
2023-04-30T03:22:59.687Z,101898.09
2023-04-30T03:25:26.771Z,101874.78
2023-04-30T03:27:53.779Z,101894.66
2023-04-30T03:30:20.852Z,101891.41
2023-04-30T03:32:47.904Z,101897.47
2023-04-30T03:35:16.365Z,101865.00
2023-04-30T03:37:43.294Z,101905.44
2023-04-30T03:40:11.780Z,101920.91
2023-04-30T03:42:38.826Z,101909.59
2023-04-30T03:45:06.412Z,101883.31
2023-04-30T03:47:33.886Z,101876.16
2023-04-30T03:50:01.222Z,101922.09
2023-04-30T03:52:28.217Z,101918.75
2023-04-30T03:54:55.310Z,101907.47
2023-04-30T03:57:22.289Z,101928.72
2023-04-30T03:59:51.435Z,101934.25
2023-04-30T04:02:18.597Z,101933.44
2023-04-30T04:04:45.785Z,101917.16
2023-04-30T04:07:12.964Z,101903.50
2023-04-30T04:09:40.061Z,101903.66
2023-04-30T04:12:07.558Z,101884.38
2023-04-30T04:14:34.700Z,101938.91
2023-04-30T04:17:05.488Z,101911.78
2023-04-30T04:19:32.925Z,101931.69
2023-04-30T04:21:59.905Z,101868.41
2023-04-30T04:24:27.180Z,101919.97
2023-04-30T04:26:54.230Z,101928.75
2023-04-30T04:29:21.235Z,101915.78
2023-04-30T04:31:49.299Z,101893.63
2023-04-30T04:34:17.054Z,101925.91
2023-04-30T04:36:44.070Z,101921.50
2023-04-30T04:39:11.833Z,101945.03
2023-04-30T04:41:38.696Z,101930.13
2023-04-30T04:44:06.543Z,101934.38
2023-04-30T04:46:34.806Z,101926.19
2023-04-30T04:49:02.198Z,101953.19
2023-04-30T04:51:29.493Z,101947.78
2023-04-30T04:53:56.408Z,101926.47
2023-04-30T04:56:23.527Z,101933.06
2023-04-30T04:58:50.447Z,101938.75
2023-04-30T05:01:17.520Z,101897.41
2023-04-30T05:03:47.715Z,101892.88
2023-04-30T05:06:14.811Z,101949.19
2023-04-30T05:08:42.567Z,101890.19
2023-04-30T05:11:09.707Z,101894.53
2023-04-30T05:13:36.746Z,101905.16
2023-04-30T05:16:04.374Z,101915.53
2023-04-30T05:18:31.428Z,101948.78
2023-04-30T05:20:58.430Z,101884.63
2023-04-30T05:23:25.897Z,101933.59
2023-04-30T05:25:53.428Z,101889.78
2023-04-30T05:28:20.346Z,101939.47
2023-04-30T05:30:47.302Z,101895.63
2023-04-30T05:33:14.474Z,101899.44
2023-04-30T05:35:41.918Z,101914.25
2023-04-30T05:38:08.924Z,101899.81
2023-04-30T05:40:37.267Z,101932.13
2023-04-30T05:43:04.347Z,101914.31
2023-04-30T05:45:31.444Z,101943.22
2023-04-30T05:47:58.404Z,101965.00
2023-04-30T05:50:25.399Z,101960.47
2023-04-30T05:52:52.315Z,101975.41
2023-04-30T05:55:19.241Z,101943.94
2023-04-30T05:57:46.165Z,101978.44
2023-04-30T06:00:13.936Z,101931.69
2023-04-30T06:02:41.248Z,101914.09
2023-04-30T06:05:09.066Z,101963.25
2023-04-30T06:07:36.256Z,101924.47
2023-04-30T06:10:03.927Z,101933.88
2023-04-30T06:12:31.668Z,101868.81
2023-04-30T06:14:58.910Z,101992.78
2023-04-30T06:17:26.099Z,101913.53
2023-04-30T06:19:53.388Z,101919.66
2023-04-30T06:22:20.475Z,101920.53
2023-04-30T06:24:47.343Z,101921.97
2023-04-30T06:27:14.265Z,101940.38
2023-04-30T06:29:41.224Z,101944.25
2023-04-30T06:32:08.639Z,101951.22
2023-04-30T06:34:36.414Z,101946.22
2023-04-30T06:37:03.540Z,101984.09
2023-04-30T06:39:30.784Z,101973.94
2023-04-30T06:41:58.890Z,101968.69
2023-04-30T06:44:28.197Z,101957.81
2023-04-30T06:46:55.394Z,101939.94
2023-04-30T06:49:22.991Z,101943.53
2023-04-30T06:51:50.015Z,101993.84
2023-04-30T06:54:16.985Z,102008.34
2023-04-30T06:56:44.668Z,101966.44
2023-04-30T06:59:12.270Z,101965.69
2023-04-30T07:01:39.366Z,101987.28
2023-04-30T07:04:06.550Z,101989.38
2023-04-30T07:06:34.207Z,101984.13
2023-04-30T07:09:02.273Z,102004.22
2023-04-30T07:11:29.212Z,101995.31
2023-04-30T07:13:56.817Z,101977.19
2023-04-30T07:16:26.236Z,101997.88
2023-04-30T07:18:53.268Z,101984.69
2023-04-30T07:21:20.225Z,101995.78
2023-04-30T07:23:48.620Z,101999.56
2023-04-30T07:26:15.904Z,101955.00
2023-04-30T07:28:42.916Z,101980.44
2023-04-30T07:31:09.923Z,101986.03
2023-04-30T07:33:36.923Z,102000.22
2023-04-30T07:36:03.965Z,102000.78
2023-04-30T07:38:31.087Z,101994.94
2023-04-30T07:40:57.949Z,102002.63
2023-04-30T07:43:25.028Z,102010.34
2023-04-30T07:45:53.439Z,102005.50
2023-04-30T07:48:21.384Z,102014.00
2023-04-30T07:50:50.549Z,102010.94
2023-04-30T07:53:18.338Z,101987.59
2023-04-30T07:55:45.379Z,102006.97
2023-04-30T07:58:15.287Z,102003.97
2023-04-30T08:00:42.269Z,102005.91
2023-04-30T08:03:09.381Z,101922.75
2023-04-30T08:05:36.592Z,101977.66
2023-04-30T08:08:04.051Z,101932.97
2023-04-30T08:10:31.993Z,101979.97
2023-04-30T08:12:58.888Z,101981.44
2023-04-30T08:15:27.556Z,101961.56
2023-04-30T08:17:55.277Z,101942.34
2023-04-30T08:20:23.569Z,101972.56
2023-04-30T08:22:51.170Z,101968.09
2023-04-30T08:25:18.126Z,101975.34
2023-04-30T08:27:45.080Z,101961.19
2023-04-30T08:30:12.266Z,101984.97
2023-04-30T08:32:39.240Z,101962.63
2023-04-30T08:35:07.502Z,101928.66
2023-04-30T08:37:34.881Z,101987.06
2023-04-30T08:40:01.757Z,101975.25
2023-04-30T08:42:36.598Z,101992.16
2023-04-30T08:45:04.936Z,101974.63
2023-04-30T08:47:31.956Z,101974.94
2023-04-30T08:49:58.846Z,101978.81
2023-04-30T08:52:28.770Z,101982.81
2023-04-30T08:54:58.018Z,101984.66
2023-04-30T08:57:25.180Z,101964.72
2023-04-30T08:59:52.067Z,101976.09
2023-04-30T09:02:19.019Z,101977.63
2023-04-30T09:04:46.771Z,101961.59
2023-04-30T09:07:14.528Z,101968.50
2023-04-30T09:09:41.579Z,101959.97
2023-04-30T09:12:19.762Z,101967.19
2023-04-30T09:15:03.569Z,101975.84
2023-04-30T09:17:31.485Z,101976.97
2023-04-30T09:20:14.083Z,101972.81
2023-04-30T09:22:42.566Z,101981.03
2023-04-30T09:25:11.350Z,101971.81
2023-04-30T09:27:38.248Z,101971.44
2023-04-30T09:30:06.330Z,101962.69
2023-04-30T09:32:33.287Z,101972.78
2023-04-30T09:35:00.635Z,101965.72
2023-04-30T09:37:41.103Z,101957.34
2023-04-30T09:40:09.001Z,101953.63
2023-04-30T09:42:35.989Z,101956.63
2023-04-30T09:45:05.369Z,101951.53
2023-04-30T09:47:33.510Z,101938.31
2023-04-30T09:50:01.013Z,101964.84
2023-04-30T09:52:27.951Z,101944.69
2023-04-30T09:54:54.894Z,101964.97
2023-04-30T09:57:24.353Z,101949.38
2023-04-30T09:59:53.409Z,101934.47
2023-04-30T10:02:23.923Z,101951.28
2023-04-30T10:04:58.405Z,101945.84
2023-04-30T10:07:32.196Z,101959.91
2023-04-30T10:10:11.717Z,101935.81
2023-04-30T10:12:52.280Z,101938.00
2023-04-30T10:15:26.705Z,101937.06
2023-04-30T10:18:03.707Z,101943.25
2023-04-30T10:20:35.444Z,101922.81
2023-04-30T10:23:02.672Z,101938.06
2023-04-30T10:25:30.180Z,101930.69
2023-04-30T10:27:57.211Z,101924.25
2023-04-30T10:30:24.350Z,101942.97
2023-04-30T10:33:15.689Z,101923.91
2023-04-30T10:36:06.615Z,101926.91
2023-04-30T10:38:34.646Z,101939.34
2023-04-30T10:41:02.519Z,101932.56
2023-04-30T10:43:34.971Z,101930.81
2023-04-30T10:46:02.854Z,101907.88
2023-04-30T10:48:31.184Z,101918.06
2023-04-30T10:50:59.790Z,101900.59
2023-04-30T10:53:31.274Z,101909.75
2023-04-30T10:56:06.501Z,101911.06
2023-04-30T10:58:39.582Z,101914.75
2023-04-30T11:01:13.737Z,101917.94
2023-04-30T11:03:43.361Z,101913.59
2023-04-30T11:06:14.690Z,101916.22
2023-04-30T11:08:46.773Z,101923.25
2023-04-30T11:11:23.798Z,101908.91
2023-04-30T11:14:01.702Z,101894.66
2023-04-30T11:16:34.859Z,101898.66
2023-04-30T11:19:11.992Z,101884.75
2023-04-30T11:21:45.062Z,101903.56
2023-04-30T11:24:13.300Z,101884.88
2023-04-30T11:27:08.854Z,101903.28
2023-04-30T11:29:36.582Z,101863.19
2023-04-30T11:32:05.635Z,101877.53
2023-04-30T11:34:35.025Z,101867.31
2023-04-30T11:37:03.416Z,101897.78
2023-04-30T11:39:35.820Z,101886.00
2023-04-30T11:42:03.185Z,101894.50
2023-04-30T11:44:30.191Z,101881.56
2023-04-30T11:46:57.338Z,101866.63
2023-04-30T11:49:24.281Z,101873.34
2023-04-30T11:51:52.336Z,101872.19
2023-04-30T11:54:19.863Z,101872.22
2023-04-30T11:56:48.584Z,101870.75
2023-04-30T11:59:17.243Z,101872.66
2023-04-30T12:01:44.699Z,101865.31
2023-04-30T12:04:12.198Z,101848.31
2023-04-30T12:06:39.799Z,101861.88
2023-04-30T12:09:09.293Z,101860.28
2023-04-30T12:11:36.666Z,101863.09
2023-04-30T12:14:04.349Z,101855.09
2023-04-30T12:16:49.308Z,101836.53
2023-04-30T12:19:21.027Z,101836.59
2023-04-30T12:21:49.074Z,101813.22
2023-04-30T12:24:18.323Z,101826.44
2023-04-30T12:26:46.008Z,101837.41
2023-04-30T12:29:18.097Z,101832.88
2023-04-30T12:31:46.080Z,101816.19
2023-04-30T12:34:15.029Z,101839.75
2023-04-30T12:36:45.335Z,101830.97
2023-04-30T12:39:16.018Z,101838.78
2023-04-30T12:41:45.872Z,101823.81
2023-04-30T12:44:25.257Z,101831.66
2023-04-30T12:46:57.144Z,101832.19
2023-04-30T12:49:33.842Z,101825.66
2023-04-30T12:52:04.764Z,101822.47
2023-04-30T12:54:35.046Z,101812.84
2023-04-30T12:57:07.615Z,101804.31
2023-04-30T13:00:00.948Z,101798.50
2023-04-30T13:02:32.050Z,101784.91
2023-04-30T13:04:59.426Z,101794.22
2023-04-30T13:07:26.456Z,101791.88
2023-04-30T13:09:53.706Z,101788.59
2023-04-30T13:12:20.826Z,101765.66
2023-04-30T13:14:47.795Z,101765.91
2023-04-30T13:17:14.823Z,101757.84
2023-04-30T13:19:41.816Z,101755.00
2023-04-30T13:22:08.705Z,101755.78
2023-04-30T13:24:35.764Z,101748.34
2023-04-30T13:27:04.032Z,101752.66
2023-04-30T13:29:31.811Z,101763.53
2023-04-30T13:31:59.248Z,101746.00
2023-04-30T13:34:29.393Z,101745.75
2023-04-30T13:36:56.483Z,101752.94
2023-04-30T13:39:23.409Z,101741.03
2023-04-30T13:41:50.575Z,101726.00
2023-04-30T13:44:17.481Z,101729.22
2023-04-30T13:46:45.533Z,101728.88
2023-04-30T13:49:12.480Z,101729.09
2023-04-30T13:51:39.439Z,101713.34
2023-04-30T13:54:06.444Z,101716.06
2023-04-30T13:56:33.403Z,101718.50
2023-04-30T13:59:00.480Z,101715.78
2023-04-30T14:01:27.575Z,101697.72
2023-04-30T14:03:55.400Z,101722.34
2023-04-30T14:06:23.000Z,101718.66
2023-04-30T14:08:49.926Z,101708.81
2023-04-30T14:11:16.916Z,101702.22
2023-04-30T14:13:43.927Z,101713.25
2023-04-30T14:16:10.865Z,101693.19
2023-04-30T14:18:37.822Z,101706.00
2023-04-30T14:21:04.747Z,101694.38
2023-04-30T14:23:33.903Z,101716.53
2023-04-30T14:26:00.992Z,101711.84
2023-04-30T14:28:27.906Z,101706.09
2023-04-30T14:30:54.915Z,101703.53
2023-04-30T14:33:21.816Z,101682.72
2023-04-30T14:35:48.812Z,101677.31
2023-04-30T14:38:15.992Z,101672.44
2023-04-30T14:40:44.922Z,101695.66
2023-04-30T14:43:11.950Z,101702.56
2023-04-30T14:45:40.014Z,101677.84
2023-04-30T14:48:07.352Z,101692.16
2023-04-30T14:50:34.264Z,101683.84
2023-04-30T14:53:01.496Z,101691.13
2023-04-30T14:55:28.485Z,101684.47
2023-04-30T14:57:55.979Z,101663.69
2023-04-30T15:00:23.040Z,101663.47
2023-04-30T15:02:50.005Z,101644.63
2023-04-30T15:05:17.143Z,101674.63
2023-04-30T15:07:44.055Z,101670.88
2023-04-30T15:10:11.322Z,101670.28
2023-04-30T15:12:39.508Z,101662.94
2023-04-30T15:15:07.944Z,101660.72
2023-04-30T15:17:36.904Z,101664.03
2023-04-30T15:20:05.489Z,101658.06
2023-04-30T15:22:33.418Z,101663.78
2023-04-30T15:25:00.504Z,101652.28
2023-04-30T15:27:28.502Z,101666.16
2023-04-30T15:29:55.836Z,101637.00
2023-04-30T15:32:22.995Z,101656.34
2023-04-30T15:34:49.902Z,101646.94
2023-04-30T15:37:16.791Z,101641.31
2023-04-30T15:39:43.761Z,101643.72
2023-04-30T15:42:10.708Z,101647.25
2023-04-30T15:44:37.590Z,101654.16
2023-04-30T15:47:04.623Z,101652.72
2023-04-30T15:49:31.621Z,101627.97
2023-04-30T15:52:00.593Z,101625.09
2023-04-30T15:54:27.762Z,101644.19
2023-04-30T15:56:54.737Z,101640.59
2023-04-30T15:59:22.146Z,101606.06
2023-04-30T16:01:49.124Z,101620.72
2023-04-30T16:04:16.172Z,101633.63
2023-04-30T16:06:43.174Z,101614.06
2023-04-30T16:09:10.888Z,101627.22
2023-04-30T16:11:41.490Z,101609.63
2023-04-30T16:14:08.632Z,101615.09
2023-04-30T16:16:35.584Z,101599.38
2023-04-30T16:19:03.282Z,101617.59
2023-04-30T16:21:34.559Z,101618.84
2023-04-30T16:24:02.816Z,101612.13
2023-04-30T16:26:30.588Z,101612.41
2023-04-30T16:28:57.486Z,101605.56
2023-04-30T16:31:24.404Z,101621.63
2023-04-30T16:33:51.344Z,101622.88
2023-04-30T16:36:18.398Z,101617.47
2023-04-30T16:38:46.435Z,101592.34
2023-04-30T16:41:15.942Z,101604.50
2023-04-30T16:43:43.795Z,101609.50
2023-04-30T16:46:10.994Z,101595.53
2023-04-30T16:48:38.325Z,101595.09
2023-04-30T16:51:06.577Z,101579.38
2023-04-30T16:53:33.978Z,101609.16
2023-04-30T16:56:01.054Z,101580.72
2023-04-30T16:58:30.278Z,101604.56
2023-04-30T17:00:57.381Z,101582.31
2023-04-30T17:03:25.045Z,101584.63
2023-04-30T17:05:53.438Z,101579.84
2023-04-30T17:08:20.879Z,101579.47
2023-04-30T17:10:47.828Z,101583.41
2023-04-30T17:13:15.014Z,101607.06
2023-04-30T17:15:43.282Z,101576.25
2023-04-30T17:18:11.864Z,101589.44
2023-04-30T17:20:39.220Z,101579.97
2023-04-30T17:23:06.526Z,101588.31
2023-04-30T17:25:33.705Z,101583.31
2023-04-30T17:28:01.700Z,101576.72
2023-04-30T17:30:29.272Z,101578.00
2023-04-30T17:32:56.653Z,101586.16
2023-04-30T17:35:23.694Z,101582.69
2023-04-30T17:37:50.642Z,101574.53
2023-04-30T17:40:17.607Z,101592.06
2023-04-30T17:42:44.510Z,101571.97
2023-04-30T17:45:11.811Z,101585.03
2023-04-30T17:47:38.880Z,101580.16
2023-04-30T17:50:08.537Z,101571.97
2023-04-30T17:52:38.479Z,101584.59
2023-04-30T17:55:09.334Z,101572.72
2023-04-30T17:57:37.860Z,101578.28
2023-04-30T18:00:07.160Z,101566.69
2023-04-30T18:02:44.155Z,101581.59
2023-04-30T18:05:11.691Z,101574.84
2023-04-30T18:07:38.594Z,101576.72
2023-04-30T18:10:06.294Z,101566.66
2023-04-30T18:12:33.260Z,101576.13
2023-04-30T18:15:00.629Z,101576.25
2023-04-30T18:17:27.631Z,101555.47
2023-04-30T18:19:55.051Z,101553.75
2023-04-30T18:22:22.151Z,101563.50
2023-04-30T18:24:49.151Z,101543.22
2023-04-30T18:27:16.132Z,101556.28
2023-04-30T18:29:44.106Z,101576.88
2023-04-30T18:32:12.735Z,101539.13
2023-04-30T18:34:39.786Z,101563.78
2023-04-30T18:37:06.890Z,101573.34
2023-04-30T18:39:33.861Z,101559.69
2023-04-30T18:42:03.353Z,101567.84
2023-04-30T18:44:32.083Z,101566.13
2023-04-30T18:46:59.059Z,101551.34
2023-04-30T18:49:26.047Z,101570.13
2023-04-30T18:51:55.104Z,101563.06
2023-04-30T18:54:22.349Z,101554.22
2023-04-30T18:56:49.597Z,101543.28
2023-04-30T18:59:16.889Z,101538.00
2023-04-30T19:01:44.029Z,101505.16
2023-04-30T19:04:13.790Z,101541.59
2023-04-30T19:06:40.754Z,101567.97
2023-04-30T19:09:09.278Z,101545.53
2023-04-30T19:11:36.392Z,101554.69
2023-04-30T19:14:03.805Z,101574.22
2023-04-30T19:16:30.778Z,101587.75
2023-04-30T19:18:58.103Z,101535.06
2023-04-30T19:21:25.657Z,101559.59
2023-04-30T19:23:52.676Z,101526.28
2023-04-30T19:26:20.196Z,101568.28
2023-04-30T19:28:47.661Z,101582.91
2023-04-30T19:31:14.806Z,101545.72
2023-04-30T19:33:42.938Z,101539.38
2023-04-30T19:36:10.540Z,101572.53
2023-04-30T19:38:37.510Z,101516.00
2023-04-30T19:41:04.406Z,101579.13
2023-04-30T19:43:31.512Z,101541.38
2023-04-30T19:45:59.333Z,101550.25
2023-04-30T19:48:26.876Z,101578.09
2023-04-30T19:50:54.577Z,101566.75
2023-04-30T19:53:22.925Z,101575.75
2023-04-30T19:55:51.115Z,101560.44
2023-04-30T19:58:18.127Z,101571.44
2023-04-30T20:00:45.813Z,101575.25
2023-04-30T20:03:14.719Z,101584.63
2023-04-30T20:05:42.221Z,101482.06
2023-04-30T20:08:09.602Z,101575.09
2023-04-30T20:10:38.371Z,101541.44
2023-04-30T20:13:06.906Z,101573.00
2023-04-30T20:15:34.080Z,101579.22
2023-04-30T20:18:01.584Z,101546.94
2023-04-30T20:20:29.624Z,101578.50
2023-04-30T20:22:56.820Z,101564.84
2023-04-30T20:25:34.163Z,101559.09
2023-04-30T20:28:01.089Z,101555.25
2023-04-30T20:30:29.007Z,101539.88
2023-04-30T20:32:56.087Z,101529.41
2023-04-30T20:35:23.912Z,101565.38
2023-04-30T20:37:54.556Z,101543.16
2023-04-30T20:40:21.943Z,101551.44
2023-04-30T20:42:48.862Z,101559.41
2023-04-30T20:45:17.899Z,101536.88
2023-04-30T20:47:44.868Z,101537.63
2023-04-30T20:50:16.494Z,101516.41
2023-04-30T20:52:43.947Z,101553.25
2023-04-30T20:55:11.542Z,101541.31
2023-04-30T20:57:38.666Z,101530.22
2023-04-30T21:00:06.758Z,101539.63
2023-04-30T21:02:34.192Z,101532.22
2023-04-30T21:05:05.997Z,101558.31
2023-04-30T21:07:47.325Z,101559.16
2023-04-30T21:10:14.419Z,101514.69
2023-04-30T21:12:41.896Z,101527.38
2023-04-30T21:15:09.740Z,101548.63
2023-04-30T21:17:36.978Z,101528.63
2023-04-30T21:20:04.240Z,101511.00
2023-04-30T21:22:31.743Z,101497.06
2023-04-30T21:24:58.683Z,101520.25
2023-04-30T21:27:25.649Z,101511.63
2023-04-30T21:29:52.735Z,101518.00
2023-04-30T21:32:19.694Z,101473.47
2023-04-30T21:34:46.617Z,101526.59
2023-04-30T21:37:15.699Z,101513.88
2023-04-30T21:39:44.067Z,101509.88
2023-04-30T21:42:10.957Z,101499.31
2023-04-30T21:44:37.963Z,101496.50
2023-04-30T21:47:08.164Z,101501.44
2023-04-30T21:49:35.726Z,101523.13
2023-04-30T21:52:04.443Z,101486.34
2023-04-30T21:54:31.364Z,101498.84
2023-04-30T21:56:58.358Z,101502.31
2023-04-30T21:59:25.401Z,101495.94
2023-04-30T22:01:52.538Z,101512.38
2023-04-30T22:04:21.548Z,101508.56
2023-04-30T22:06:48.810Z,101490.34
2023-04-30T22:09:15.792Z,101499.75
2023-04-30T22:11:42.694Z,101505.50
2023-04-30T22:14:09.582Z,101500.78
2023-04-30T22:16:36.666Z,101500.69
2023-04-30T22:19:09.791Z,101485.97
2023-04-30T22:21:36.785Z,101479.56
2023-04-30T22:24:03.840Z,101492.00
2023-04-30T22:26:31.599Z,101493.09
2023-04-30T22:28:58.773Z,101498.34
2023-04-30T22:31:26.262Z,101482.38
2023-04-30T22:33:53.243Z,101487.03
2023-04-30T22:36:20.337Z,101472.25
2023-04-30T22:38:47.424Z,101468.59
2023-04-30T22:41:14.496Z,101471.06
2023-04-30T22:43:41.809Z,101475.38
2023-04-30T22:46:08.748Z,101448.31
2023-04-30T22:48:35.687Z,101463.03
2023-04-30T22:51:03.260Z,101471.38
2023-04-30T22:53:30.321Z,101456.38
2023-04-30T22:55:57.679Z,101483.78
2023-04-30T22:58:24.564Z,101486.81
2023-04-30T23:00:51.639Z,101460.25
2023-04-30T23:03:18.588Z,101463.41
2023-04-30T23:05:49.239Z,101456.94
2023-04-30T23:08:16.184Z,101442.59
2023-04-30T23:10:46.095Z,101447.13
2023-04-30T23:13:13.036Z,101438.38
2023-04-30T23:15:39.960Z,101443.75
2023-04-30T23:18:06.923Z,101443.53
2023-04-30T23:20:33.967Z,101441.91
2023-04-30T23:23:00.857Z,101432.09
2023-04-30T23:25:27.742Z,101457.47
2023-04-30T23:27:54.700Z,101448.91
2023-04-30T23:30:22.308Z,101414.66
2023-04-30T23:32:49.193Z,101453.50
2023-04-30T23:35:16.270Z,101450.34
2023-04-30T23:37:43.140Z,101433.84
2023-04-30T23:40:10.782Z,101442.78
2023-04-30T23:42:37.676Z,101423.75
2023-04-30T23:45:05.844Z,101418.72
2023-04-30T23:47:36.680Z,101424.22
2023-04-30T23:50:04.282Z,101413.56
2023-04-30T23:52:31.882Z,101416.03
2023-04-30T23:54:58.865Z,101403.53
2023-04-30T23:57:27.511Z,101393.28
2023-04-30T23:59:55.206Z,101390.81
